Terminal Aerodrome Forecast
Issued by NWS Springfield, MO

Home | Current Version | Previous Version | Text Only | Print | Product List | Glossary On
Versions: 1 2 3 4 5 6 7 8 9 10 11 12 13 14 15 16 17 18 19 20 21
102
FTUS43 KSGF 021720
TAFSGF
TAF
KSGF 021720Z 0218/0318 33009KT P6SM BKN020 OVC035
     FM022300 32005KT P6SM BKN050
     FM030600 33004KT P6SM SCT200
      TEMPO 0309/0312 5SM BR
     FM031200 33006KT P6SM BKN100=

USA.gov is the U.S. government's official web portal to all federal, state and local government web resources and services.